createdAt,value
2019-01-30T00:00:32.078Z,78.13
2019-01-30T00:03:00.289Z,78.17
2019-01-30T00:05:28.406Z,78.11
2019-01-30T00:07:56.542Z,78.26
2019-01-30T00:10:24.519Z,78.31
2019-01-30T00:12:52.800Z,78.31
2019-01-30T00:15:20.764Z,78.33
2019-01-30T00:17:48.845Z,78.39
2019-01-30T00:20:16.766Z,78.26
2019-01-30T00:22:44.535Z,77.97
2019-01-30T00:25:12.591Z,77.80
2019-01-30T00:27:40.673Z,77.68
2019-01-30T00:30:09.612Z,77.59
2019-01-30T00:32:37.522Z,77.56
2019-01-30T00:35:06.758Z,77.69
2019-01-30T00:37:34.718Z,77.79
2019-01-30T00:40:02.859Z,77.75
2019-01-30T00:42:30.722Z,77.60
2019-01-30T00:44:58.540Z,77.48
2019-01-30T00:47:26.293Z,77.52
2019-01-30T00:49:54.248Z,77.55
2019-01-30T00:52:22.125Z,77.42
2019-01-30T00:54:50.009Z,77.21
2019-01-30T00:57:17.849Z,77.19
2019-01-30T00:59:45.634Z,77.16
2019-01-30T01:02:13.705Z,77.18
2019-01-30T01:04:41.705Z,77.10
2019-01-30T01:07:09.753Z,77.00
2019-01-30T01:09:37.793Z,76.94
2019-01-30T01:12:05.893Z,76.90
2019-01-30T01:14:34.815Z,76.83
2019-01-30T01:17:02.789Z,76.73
2019-01-30T01:19:30.687Z,76.71
2019-01-30T01:22:00.989Z,76.62
2019-01-30T01:24:29.071Z,76.71
2019-01-30T01:26:57.083Z,76.78
2019-01-30T01:29:26.039Z,76.85
2019-01-30T01:31:53.985Z,76.96
2019-01-30T01:34:22.028Z,76.88
2019-01-30T01:36:49.780Z,76.87
2019-01-30T01:39:17.697Z,76.80
2019-01-30T01:41:45.455Z,76.84
2019-01-30T01:44:13.455Z,76.88
2019-01-30T01:46:41.428Z,77.05
2019-01-30T01:49:09.375Z,77.29
2019-01-30T01:51:37.329Z,77.35
2019-01-30T01:54:05.288Z,77.63
2019-01-30T01:56:33.247Z,77.65
2019-01-30T01:59:01.131Z,77.49
2019-01-30T02:01:29.021Z,77.58
2019-01-30T02:03:57.166Z,78.03
2019-01-30T02:06:25.166Z,78.25
2019-01-30T02:08:53.023Z,78.24
2019-01-30T02:11:20.966Z,78.24
2019-01-30T02:13:48.727Z,78.56
2019-01-30T02:16:16.930Z,78.59
2019-01-30T02:18:44.700Z,78.66
2019-01-30T02:21:12.715Z,78.61
2019-01-30T02:23:40.478Z,78.53
2019-01-30T02:26:08.531Z,78.45
2019-01-30T02:28:36.506Z,78.60
2019-01-30T02:31:04.431Z,78.54
2019-01-30T02:33:32.352Z,78.64
2019-01-30T02:36:00.305Z,78.58
2019-01-30T02:38:28.120Z,78.66
2019-01-30T02:40:56.043Z,78.96
2019-01-30T02:43:24.096Z,78.98
2019-01-30T02:45:51.972Z,79.14
2019-01-30T02:48:19.869Z,79.51
2019-01-30T02:50:47.840Z,79.79
2019-01-30T02:53:15.719Z,80.08
2019-01-30T02:55:45.145Z,80.12
2019-01-30T02:58:13.045Z,80.22
2019-01-30T03:00:41.124Z,80.39
2019-01-30T03:03:09.015Z,80.22
2019-01-30T03:05:36.969Z,79.87
2019-01-30T03:08:05.131Z,79.85
2019-01-30T03:10:33.126Z,79.70
2019-01-30T03:13:01.096Z,79.77
2019-01-30T03:15:29.130Z,79.69
2019-01-30T03:17:56.994Z,79.79
2019-01-30T03:20:25.796Z,79.85
2019-01-30T03:22:54.060Z,79.86
2019-01-30T03:25:22.810Z,79.93
2019-01-30T03:27:50.849Z,80.05
2019-01-30T03:30:20.910Z,80.38
2019-01-30T03:32:49.776Z,80.19
2019-01-30T03:35:17.942Z,80.59
2019-01-30T03:37:45.910Z,80.64
2019-01-30T03:40:15.611Z,80.50
2019-01-30T03:42:43.466Z,80.38
2019-01-30T03:45:12.208Z,80.40
2019-01-30T03:47:40.867Z,80.95
2019-01-30T03:50:09.798Z,81.06
2019-01-30T03:52:37.714Z,81.14
2019-01-30T03:55:07.196Z,81.04
2019-01-30T03:57:42.607Z,81.47
2019-01-30T04:00:16.340Z,82.11
2019-01-30T04:02:44.401Z,82.28
2019-01-30T04:05:12.506Z,82.43
2019-01-30T04:07:40.449Z,82.88
2019-01-30T04:10:10.240Z,83.28
2019-01-30T04:12:38.320Z,83.56
2019-01-30T04:15:06.929Z,83.91
2019-01-30T04:17:34.781Z,83.88
2019-01-30T04:20:03.553Z,83.78
2019-01-30T04:22:31.400Z,83.88
2019-01-30T04:24:59.485Z,83.97
2019-01-30T04:27:27.443Z,84.11
2019-01-30T04:29:55.417Z,84.18
2019-01-30T04:32:23.327Z,84.59
2019-01-30T04:34:51.182Z,84.67
2019-01-30T04:37:18.957Z,84.59
2019-01-30T04:39:46.993Z,84.56
2019-01-30T04:42:14.940Z,84.72
2019-01-30T04:44:43.550Z,84.70
2019-01-30T04:47:11.319Z,84.76
2019-01-30T04:49:39.209Z,85.04
2019-01-30T04:52:07.273Z,85.15
2019-01-30T04:54:35.112Z,85.48
2019-01-30T04:57:02.999Z,85.62
2019-01-30T04:59:33.732Z,85.62
2019-01-30T05:02:02.226Z,85.59
2019-01-30T05:04:30.134Z,86.06
2019-01-30T05:06:58.057Z,86.21
2019-01-30T05:09:26.212Z,86.35
2019-01-30T05:11:54.361Z,86.41
2019-01-30T05:14:22.260Z,86.41
2019-01-30T05:16:50.137Z,86.03
2019-01-30T05:19:17.981Z,85.61
2019-01-30T05:21:45.878Z,85.68
2019-01-30T05:24:13.840Z,85.56
2019-01-30T05:26:41.617Z,85.79
2019-01-30T05:29:09.451Z,86.09
2019-01-30T05:31:37.262Z,86.32
2019-01-30T05:34:05.253Z,86.06
2019-01-30T05:36:33.313Z,85.97
2019-01-30T05:39:01.169Z,85.87
2019-01-30T05:41:29.802Z,86.13
2019-01-30T05:43:57.683Z,85.57
2019-01-30T05:46:25.453Z,85.47
2019-01-30T05:48:53.872Z,85.39
2019-01-30T05:51:21.724Z,85.41
2019-01-30T05:53:49.745Z,85.10
2019-01-30T05:56:20.188Z,84.91
2019-01-30T05:58:47.385Z,84.47
2019-01-30T06:01:17.791Z,84.36
2019-01-30T06:03:45.957Z,84.32
2019-01-30T06:06:13.887Z,83.73
2019-01-30T06:08:41.744Z,83.84
2019-01-30T06:11:12.119Z,83.56
2019-01-30T06:13:39.447Z,83.26
2019-01-30T06:16:07.481Z,82.95
2019-01-30T06:18:36.047Z,82.97
2019-01-30T06:21:04.081Z,82.95
2019-01-30T06:23:33.006Z,83.22
2019-01-30T06:26:00.989Z,83.24
2019-01-30T06:28:29.423Z,83.02
2019-01-30T06:30:57.509Z,82.92
2019-01-30T06:33:25.426Z,82.91
2019-01-30T06:35:53.861Z,82.60
2019-01-30T06:38:21.871Z,82.77
2019-01-30T06:40:49.780Z,82.72
2019-01-30T06:43:17.646Z,82.47
2019-01-30T06:45:45.677Z,82.40
2019-01-30T06:48:13.639Z,82.73
2019-01-30T06:50:42.040Z,82.90
2019-01-30T06:53:10.001Z,83.11
2019-01-30T06:55:37.896Z,82.43
2019-01-30T06:58:05.944Z,82.64
2019-01-30T07:00:33.952Z,82.42
2019-01-30T07:03:02.542Z,82.09
2019-01-30T07:05:30.510Z,82.08
2019-01-30T07:07:58.484Z,82.00
2019-01-30T07:10:30.144Z,81.89
2019-01-30T07:12:58.109Z,81.71
2019-01-30T07:15:26.121Z,82.48
2019-01-30T07:17:55.054Z,82.51
2019-01-30T07:20:23.055Z,82.38
2019-01-30T07:22:51.038Z,82.35
2019-01-30T07:25:20.095Z,82.56
2019-01-30T07:27:48.131Z,82.76
2019-01-30T07:30:28.055Z,83.12
2019-01-30T07:32:55.962Z,83.27
2019-01-30T07:35:24.069Z,83.43
2019-01-30T07:37:52.158Z,83.44
2019-01-30T07:40:20.358Z,83.50
2019-01-30T07:42:48.216Z,83.50
2019-01-30T07:45:17.430Z,83.46
2019-01-30T07:47:45.405Z,83.71
2019-01-30T07:50:13.626Z,83.42
2019-01-30T07:52:41.717Z,83.66
2019-01-30T07:55:12.259Z,83.80
2019-01-30T07:57:40.244Z,83.60
2019-01-30T08:00:11.685Z,83.81
2019-01-30T08:02:39.575Z,83.50
2019-01-30T08:05:07.956Z,83.20
2019-01-30T08:07:35.985Z,83.12
2019-01-30T08:10:05.401Z,82.73
2019-01-30T08:12:33.370Z,82.82
2019-01-30T08:15:01.336Z,82.65
2019-01-30T08:17:29.697Z,82.30
2019-01-30T08:19:57.631Z,81.79
2019-01-30T08:22:25.814Z,81.24
2019-01-30T08:24:53.919Z,81.18
2019-01-30T08:27:22.154Z,80.72
2019-01-30T08:29:50.483Z,80.27
2019-01-30T08:32:18.632Z,79.56
2019-01-30T08:34:46.742Z,79.37
2019-01-30T08:37:18.810Z,79.11
2019-01-30T08:39:46.670Z,79.04
2019-01-30T08:42:14.752Z,78.12
2019-01-30T08:44:46.976Z,77.77
2019-01-30T08:47:12.751Z,77.80
2019-01-30T08:49:40.734Z,78.05
2019-01-30T08:52:09.530Z,77.34
2019-01-30T08:54:37.338Z,77.31
2019-01-30T08:57:05.417Z,76.54
2019-01-30T08:59:33.398Z,75.52
2019-01-30T09:02:01.345Z,75.18
2019-01-30T09:04:29.967Z,74.38
2019-01-30T09:06:57.884Z,74.29
2019-01-30T09:09:25.932Z,73.96
2019-01-30T09:11:53.918Z,73.63
2019-01-30T09:14:21.894Z,73.52
2019-01-30T09:16:49.874Z,73.30
2019-01-30T09:19:17.814Z,72.25
2019-01-30T09:21:45.847Z,73.13
2019-01-30T09:24:16.141Z,72.63
2019-01-30T09:26:43.604Z,71.81
2019-01-30T09:29:11.536Z,72.22
2019-01-30T09:31:39.448Z,72.09
2019-01-30T09:34:07.279Z,71.67
2019-01-30T09:36:35.075Z,71.00
2019-01-30T09:39:18.386Z,70.85
2019-01-30T09:41:46.326Z,70.70
2019-01-30T09:44:14.314Z,70.45
2019-01-30T09:46:42.193Z,70.64
2019-01-30T09:49:09.983Z,69.60
2019-01-30T09:51:37.862Z,69.51
2019-01-30T09:54:05.926Z,69.91
2019-01-30T09:56:34.707Z,69.50
2019-01-30T09:59:02.624Z,69.71
2019-01-30T10:01:31.000Z,70.49
2019-01-30T10:03:58.948Z,70.28
2019-01-30T10:06:26.870Z,70.08
2019-01-30T10:08:55.219Z,69.29
2019-01-30T10:11:23.040Z,69.54
2019-01-30T10:13:50.937Z,69.74
2019-01-30T10:16:18.898Z,69.21
2019-01-30T10:18:46.704Z,69.27
2019-01-30T10:21:14.879Z,69.56
2019-01-30T10:23:42.857Z,69.44
2019-01-30T10:26:10.910Z,69.20
2019-01-30T10:28:38.851Z,69.26
2019-01-30T10:31:06.952Z,69.52
2019-01-30T10:33:34.843Z,69.36
2019-01-30T10:36:02.959Z,69.39
2019-01-30T10:38:31.139Z,69.70
2019-01-30T10:40:59.149Z,69.80
2019-01-30T10:43:27.154Z,69.13
2019-01-30T10:45:56.864Z,69.09
2019-01-30T10:48:24.774Z,69.10
2019-01-30T10:50:52.811Z,68.61
2019-01-30T10:53:20.723Z,68.76
2019-01-30T10:55:48.694Z,68.36
2019-01-30T10:58:17.562Z,68.34
2019-01-30T11:00:48.169Z,68.81
2019-01-30T11:03:16.570Z,68.06
2019-01-30T11:05:44.749Z,67.83
2019-01-30T11:08:12.793Z,68.19
2019-01-30T11:10:40.776Z,68.16
2019-01-30T11:13:16.461Z,67.25
2019-01-30T11:15:44.416Z,66.91
2019-01-30T11:18:14.768Z,66.91
2019-01-30T11:20:42.841Z,66.97
2019-01-30T11:23:10.849Z,66.38
2019-01-30T11:25:40.244Z,66.32
2019-01-30T11:28:08.367Z,66.62
2019-01-30T11:30:36.452Z,66.13
2019-01-30T11:33:04.837Z,65.63
2019-01-30T11:35:32.970Z,64.87
2019-01-30T11:38:01.132Z,64.67
2019-01-30T11:40:29.186Z,65.22
2019-01-30T11:42:57.164Z,64.37
2019-01-30T11:45:30.742Z,64.57
2019-01-30T11:47:58.723Z,63.85
2019-01-30T11:50:26.766Z,63.60
2019-01-30T11:52:54.725Z,63.84
2019-01-30T11:55:23.095Z,62.91
2019-01-30T11:57:50.981Z,62.92
2019-01-30T12:00:33.951Z,62.57
2019-01-30T12:03:01.837Z,62.89
2019-01-30T12:05:29.730Z,62.88
2019-01-30T12:07:58.147Z,63.18
2019-01-30T12:10:26.178Z,62.93
2019-01-30T12:12:54.059Z,62.05
2019-01-30T12:15:25.966Z,62.36
2019-01-30T12:17:53.881Z,62.26
2019-01-30T12:20:21.941Z,61.64
2019-01-30T12:22:50.717Z,61.58
2019-01-30T12:25:19.107Z,61.58
2019-01-30T12:27:47.140Z,61.31
2019-01-30T12:30:17.506Z,61.55
2019-01-30T12:32:45.437Z,61.92
2019-01-30T12:35:13.639Z,61.16
2019-01-30T12:37:41.698Z,61.15
2019-01-30T12:40:11.210Z,61.35
2019-01-30T12:42:39.299Z,61.52
2019-01-30T12:45:09.269Z,61.44
2019-01-30T12:47:37.284Z,73.37
2019-01-30T12:50:07.550Z,61.85
2019-01-30T12:52:35.539Z,59.85
2019-01-30T12:55:04.130Z,60.53
2019-01-30T12:57:31.988Z,60.59
2019-01-30T12:59:59.761Z,59.58
2019-01-30T13:02:27.880Z,59.28
2019-01-30T13:04:55.668Z,60.00
2019-01-30T13:07:23.727Z,59.28
2019-01-30T13:09:51.731Z,59.60
2019-01-30T13:12:19.704Z,59.62
2019-01-30T13:14:47.739Z,59.39
2019-01-30T13:17:19.339Z,59.52
2019-01-30T13:19:47.775Z,59.58
2019-01-30T13:22:15.679Z,58.77
2019-01-30T13:24:43.971Z,58.36
2019-01-30T13:27:11.935Z,58.89
2019-01-30T13:29:39.745Z,59.14
2019-01-30T13:32:07.867Z,59.24
2019-01-30T13:34:35.768Z,59.80
2019-01-30T13:37:03.843Z,59.72
2019-01-30T13:39:31.777Z,59.62
2019-01-30T13:42:00.542Z,60.07
2019-01-30T13:44:28.490Z,59.75
2019-01-30T13:46:56.641Z,59.37
2019-01-30T13:49:24.559Z,60.32
2019-01-30T13:51:52.361Z,71.14
2019-01-30T13:54:20.421Z,70.25
2019-01-30T13:56:48.640Z,65.37
2019-01-30T13:59:16.629Z,62.18
2019-01-30T14:01:44.639Z,58.18
2019-01-30T14:04:13.183Z,58.54
2019-01-30T14:06:41.233Z,59.95
2019-01-30T14:09:09.585Z,55.56
2019-01-30T14:11:37.584Z,53.49
2019-01-30T14:14:05.716Z,54.77
2019-01-30T14:16:33.800Z,54.08
2019-01-30T14:19:01.940Z,55.58
2019-01-30T14:21:29.816Z,55.60
2019-01-30T14:23:57.714Z,56.15
2019-01-30T14:26:25.608Z,56.31
2019-01-30T14:28:53.521Z,53.85
2019-01-30T14:31:21.616Z,56.28
2019-01-30T14:33:50.288Z,50.74
2019-01-30T14:36:18.289Z,54.91
2019-01-30T14:38:46.258Z,52.22
2019-01-30T14:41:14.182Z,53.61
2019-01-30T14:43:41.995Z,51.62
2019-01-30T14:46:10.041Z,55.13
2019-01-30T14:48:38.109Z,54.82
2019-01-30T14:51:19.294Z,56.20
2019-01-30T14:53:47.161Z,55.92
2019-01-30T14:56:15.042Z,55.87
2019-01-30T14:58:42.817Z,54.40
2019-01-30T15:01:10.764Z,57.10
2019-01-30T15:03:38.756Z,57.59
2019-01-30T15:06:06.747Z,57.89
2019-01-30T15:08:34.655Z,56.37
2019-01-30T15:11:02.619Z,57.96
2019-01-30T15:13:30.725Z,58.58
2019-01-30T15:15:58.596Z,58.78
2019-01-30T15:18:26.703Z,58.91
2019-01-30T15:20:54.491Z,59.44
2019-01-30T15:23:22.298Z,58.81
2019-01-30T15:25:50.449Z,59.86
2019-01-30T15:28:18.348Z,60.04
2019-01-30T15:30:47.519Z,59.50
2019-01-30T15:33:15.559Z,60.83
2019-01-30T15:35:43.755Z,60.40
2019-01-30T15:38:13.444Z,60.17
2019-01-30T15:40:41.672Z,61.12
2019-01-30T15:43:09.735Z,61.77
2019-01-30T15:45:37.783Z,61.87
2019-01-30T15:48:06.027Z,61.67
2019-01-30T15:50:35.020Z,62.32
2019-01-30T15:53:05.889Z,62.34
2019-01-30T15:55:34.050Z,62.77
2019-01-30T15:58:05.134Z,62.72
2019-01-30T16:00:36.053Z,62.94
2019-01-30T16:03:04.272Z,63.38
2019-01-30T16:05:32.320Z,63.41
2019-01-30T16:08:00.283Z,63.98
2019-01-30T16:10:28.298Z,63.99
2019-01-30T16:12:56.257Z,64.53
2019-01-30T16:15:27.371Z,64.70
2019-01-30T16:17:55.352Z,64.81
2019-01-30T16:20:23.497Z,65.10
2019-01-30T16:22:51.476Z,65.32
2019-01-30T16:25:19.445Z,65.52
2019-01-30T16:27:47.437Z,65.68
2019-01-30T16:30:17.998Z,65.70
2019-01-30T16:32:47.820Z,65.77
2019-01-30T16:35:21.386Z,66.09
2019-01-30T16:37:49.408Z,66.05
2019-01-30T16:40:17.494Z,66.25
2019-01-30T16:42:45.421Z,66.54
2019-01-30T16:45:15.733Z,66.99
2019-01-30T16:47:44.409Z,67.22
2019-01-30T16:50:13.542Z,67.43
2019-01-30T16:52:41.513Z,67.59
2019-01-30T16:55:10.474Z,67.91
2019-01-30T16:57:38.482Z,68.00
2019-01-30T17:00:10.134Z,68.33
2019-01-30T17:02:38.134Z,68.79
2019-01-30T17:05:08.679Z,68.96
2019-01-30T17:07:36.852Z,68.89
2019-01-30T17:10:07.053Z,69.05
2019-01-30T17:12:35.000Z,69.55
2019-01-30T17:15:03.286Z,69.83
2019-01-30T17:17:31.399Z,70.15
2019-01-30T17:19:59.687Z,70.46
2019-01-30T17:22:27.642Z,71.01
2019-01-30T17:24:56.132Z,71.66
2019-01-30T17:27:24.120Z,72.10
2019-01-30T17:29:52.020Z,72.73
2019-01-30T17:32:19.839Z,73.62
2019-01-30T17:34:47.878Z,72.95
2019-01-30T17:37:15.824Z,73.55
2019-01-30T17:39:43.818Z,73.40
2019-01-30T17:42:11.894Z,74.45
2019-01-30T17:44:39.748Z,74.58
2019-01-30T17:47:07.861Z,73.94
2019-01-30T17:49:35.737Z,74.54
2019-01-30T17:52:03.703Z,75.17
2019-01-30T17:54:31.548Z,75.09
2019-01-30T17:56:59.605Z,75.29
2019-01-30T17:59:27.445Z,75.17
2019-01-30T18:01:55.526Z,75.36
2019-01-30T18:04:23.419Z,75.36
2019-01-30T18:06:51.400Z,75.20
2019-01-30T18:09:19.371Z,75.02
2019-01-30T18:11:47.398Z,74.53
2019-01-30T18:14:15.378Z,74.12
2019-01-30T18:16:43.444Z,74.06
2019-01-30T18:19:11.210Z,73.84
2019-01-30T18:21:39.260Z,73.73
2019-01-30T18:24:07.342Z,73.73
2019-01-30T18:26:37.975Z,74.18
2019-01-30T18:29:05.206Z,74.43
2019-01-30T18:31:33.025Z,74.88
2019-01-30T18:34:01.095Z,74.68
2019-01-30T18:36:40.400Z,74.25
2019-01-30T18:38:59.371Z,74.06
2019-01-30T18:41:27.333Z,74.66
2019-01-30T18:43:55.513Z,74.47
2019-01-30T18:46:24.145Z,74.45
2019-01-30T18:48:52.083Z,74.29
2019-01-30T18:51:20.067Z,74.03
2019-01-30T18:53:48.369Z,74.44
2019-01-30T18:56:16.312Z,74.19
2019-01-30T18:58:44.296Z,74.85
2019-01-30T19:01:12.274Z,74.75
2019-01-30T19:03:40.246Z,74.80
2019-01-30T19:06:08.220Z,75.25
2019-01-30T19:08:36.210Z,75.26
2019-01-30T19:11:04.176Z,75.49
2019-01-30T19:13:32.180Z,74.97
2019-01-30T19:16:00.718Z,75.04
2019-01-30T19:18:28.815Z,74.96
2019-01-30T19:20:56.810Z,74.89
2019-01-30T19:23:24.655Z,75.12
2019-01-30T19:25:52.434Z,75.00
2019-01-30T19:28:20.271Z,74.83
2019-01-30T19:30:48.146Z,75.21
2019-01-30T19:33:16.132Z,75.41
2019-01-30T19:35:44.136Z,75.83
2019-01-30T19:38:12.040Z,75.62
2019-01-30T19:40:40.006Z,76.35
2019-01-30T19:43:07.866Z,76.06
2019-01-30T19:45:35.920Z,76.58
2019-01-30T19:48:05.090Z,76.85
2019-01-30T19:50:33.146Z,76.84
2019-01-30T19:53:01.146Z,76.82
2019-01-30T19:55:29.118Z,76.63
2019-01-30T19:57:57.244Z,76.33
2019-01-30T20:00:30.644Z,75.85
2019-01-30T20:02:59.057Z,75.69
2019-01-30T20:05:27.045Z,75.95
2019-01-30T20:07:55.122Z,75.96
2019-01-30T20:10:28.759Z,75.75
2019-01-30T20:12:56.800Z,75.45
2019-01-30T20:15:24.878Z,75.47
2019-01-30T20:17:52.840Z,75.35
2019-01-30T20:20:21.298Z,75.14
2019-01-30T20:22:49.477Z,75.40
2019-01-30T20:25:19.863Z,75.52
2019-01-30T20:27:47.810Z,75.21
2019-01-30T20:30:17.749Z,75.25
2019-01-30T20:32:46.014Z,75.12
2019-01-30T20:35:14.165Z,75.12
2019-01-30T20:37:42.068Z,75.45
2019-01-30T20:40:13.240Z,75.20
2019-01-30T20:42:41.415Z,75.24
2019-01-30T20:45:10.641Z,75.79
2019-01-30T20:47:38.739Z,76.26
2019-01-30T20:50:09.514Z,77.18
2019-01-30T20:52:37.334Z,78.09
2019-01-30T20:55:06.123Z,78.14
2019-01-30T20:57:34.041Z,78.30
2019-01-30T21:00:04.067Z,78.39
2019-01-30T21:02:32.649Z,77.63
2019-01-30T21:05:00.681Z,77.23
2019-01-30T21:07:37.023Z,76.92
2019-01-30T21:09:58.440Z,76.77
2019-01-30T21:12:26.368Z,77.24
2019-01-30T21:14:54.208Z,77.12
2019-01-30T21:17:22.107Z,77.51
2019-01-30T21:19:49.909Z,77.36
2019-01-30T21:22:17.778Z,78.11
2019-01-30T21:24:45.703Z,78.16
2019-01-30T21:27:13.698Z,78.54
2019-01-30T21:29:41.697Z,78.64
2019-01-30T21:32:14.078Z,78.92
2019-01-30T21:34:41.854Z,80.25
2019-01-30T21:37:09.694Z,80.48
2019-01-30T21:39:37.667Z,81.20
2019-01-30T21:42:05.741Z,82.12
2019-01-30T21:44:33.536Z,82.24
2019-01-30T21:47:02.700Z,82.16
2019-01-30T21:49:30.811Z,81.85
2019-01-30T21:51:58.821Z,81.97
2019-01-30T21:54:26.878Z,81.59
2019-01-30T21:56:55.503Z,81.89
2019-01-30T21:59:23.276Z,82.11
2019-01-30T22:01:51.219Z,82.04
2019-01-30T22:04:19.124Z,82.31
2019-01-30T22:06:47.353Z,81.69
2019-01-30T22:09:15.214Z,82.05
2019-01-30T22:11:43.201Z,82.87
2019-01-30T22:14:11.147Z,83.18
2019-01-30T22:16:38.943Z,83.12
2019-01-30T22:19:07.016Z,82.86
2019-01-30T22:21:34.813Z,82.35
2019-01-30T22:24:05.522Z,82.25
2019-01-30T22:26:32.720Z,82.13
2019-01-30T22:29:02.695Z,82.25
2019-01-30T22:31:30.445Z,81.93
2019-01-30T22:33:58.829Z,82.55
2019-01-30T22:36:26.679Z,83.00
2019-01-30T22:38:54.500Z,83.60
2019-01-30T22:41:22.418Z,83.86
2019-01-30T22:43:50.326Z,84.21
2019-01-30T22:46:18.316Z,84.01
2019-01-30T22:48:46.244Z,83.88
2019-01-30T22:51:14.088Z,83.82
2019-01-30T22:53:41.972Z,84.18
2019-01-30T22:56:09.935Z,84.33
2019-01-30T22:58:37.788Z,85.09
2019-01-30T23:01:26.988Z,85.48
2019-01-30T23:04:27.949Z,85.51
2019-01-30T23:07:38.053Z,85.31
2019-01-30T23:10:45.120Z,84.41
2019-01-30T23:13:33.723Z,84.14
2019-01-30T23:16:40.294Z,83.45
2019-01-30T23:20:04.932Z,83.14
2019-01-30T23:23:04.748Z,82.88
2019-01-30T23:25:54.127Z,83.13
2019-01-30T23:28:42.050Z,83.77
2019-01-30T23:31:32.831Z,83.45
2019-01-30T23:34:33.898Z,82.94
2019-01-30T23:37:23.769Z,82.80
2019-01-30T23:40:30.262Z,82.87
2019-01-30T23:43:43.589Z,83.14
2019-01-30T23:46:32.856Z,83.36
2019-01-30T23:49:48.619Z,83.33
2019-01-30T23:52:57.776Z,82.75
2019-01-30T23:56:06.253Z,82.35
2019-01-30T23:58:51.417Z,82.08
